createdAt,value
2023-03-08T00:02:29.330Z,1171
2023-03-08T00:07:32.224Z,1179
2023-03-08T00:12:50.633Z,1185
2023-03-08T00:18:08.551Z,1199
2023-03-08T00:23:27.327Z,1208
2023-03-08T00:28:46.186Z,1212
2023-03-08T00:34:04.601Z,1216
2023-03-08T00:39:23.406Z,1220
2023-03-08T00:44:25.992Z,1227
2023-03-08T00:49:28.841Z,1239
2023-03-08T00:54:46.825Z,1209
2023-03-08T01:00:05.054Z,1182
2023-03-08T01:05:07.899Z,1245
2023-03-08T01:10:26.715Z,1306
2023-03-08T01:15:44.954Z,1341
2023-03-08T01:21:03.741Z,1370
2023-03-08T01:26:22.501Z,1396
2023-03-08T01:31:41.472Z,1415
2023-03-08T01:36:59.979Z,1442
2023-03-08T01:42:18.749Z,1468
2023-03-08T01:47:37.202Z,1481
2023-03-08T01:52:55.700Z,1519
2023-03-08T01:58:14.212Z,1539
2023-03-08T02:03:32.678Z,1550
2023-03-08T02:08:51.189Z,1555
2023-03-08T02:14:09.434Z,1561
2023-03-08T02:19:27.410Z,1566
2023-03-08T02:24:46.199Z,1571
2023-03-08T02:30:05.015Z,1576
2023-03-08T02:35:22.991Z,1594
2023-03-08T02:40:41.770Z,1607
2023-03-08T02:46:02.875Z,1604
2023-03-08T02:51:21.344Z,1626
2023-03-08T02:56:39.559Z,1634
2023-03-08T03:01:57.792Z,1635
2023-03-08T03:07:16.080Z,1644
2023-03-08T03:12:34.569Z,1641
2023-03-08T03:17:53.133Z,1648
2023-03-08T03:23:11.900Z,1644
2023-03-08T03:28:30.122Z,1645
2023-03-08T03:33:48.612Z,1657
2023-03-08T03:39:07.368Z,1657
2023-03-08T03:44:10.264Z,1656
2023-03-08T03:49:28.513Z,1650
2023-03-08T03:54:46.689Z,1653
2023-03-08T04:00:05.501Z,1652
2023-03-08T04:05:23.727Z,1659
2023-03-08T04:10:42.499Z,1643
2023-03-08T04:16:00.772Z,1646
2023-03-08T04:21:19.718Z,1639
2023-03-08T04:26:22.527Z,1635
2023-03-08T04:31:40.801Z,1641
2023-03-08T04:36:59.462Z,1651
2023-03-08T04:42:17.652Z,1655
2023-03-08T04:47:36.443Z,1634
2023-03-08T04:52:55.200Z,1604
2023-03-08T04:58:13.416Z,1585
2023-03-08T05:03:31.594Z,1569
2023-03-08T05:08:49.607Z,1540
2023-03-08T05:14:08.137Z,1533
2023-03-08T05:19:26.607Z,1519
2023-03-08T05:24:45.129Z,1500
2023-03-08T05:30:03.046Z,1471
2023-03-08T05:35:21.294Z,1466
2023-03-08T05:40:39.800Z,1467
2023-03-08T05:45:58.072Z,967
2023-03-08T05:51:16.686Z,952
2023-03-08T05:56:35.429Z,1027
2023-03-08T06:01:54.130Z,1071
2023-03-08T06:07:12.475Z,1087
2023-03-08T06:12:31.033Z,1095
2023-03-08T06:17:49.670Z,1096
2023-03-08T06:23:08.196Z,1089
2023-03-08T06:28:26.408Z,1087
2023-03-08T06:33:44.754Z,1084
2023-03-08T06:39:03.265Z,1076
2023-03-08T06:44:22.082Z,1066
2023-03-08T06:49:40.278Z,1060
2023-03-08T06:54:59.175Z,1058
2023-03-08T07:00:17.685Z,1053
2023-03-08T07:05:36.147Z,1047
2023-03-08T07:10:54.771Z,1043
2023-03-08T07:16:13.064Z,1043
2023-03-08T07:21:31.528Z,1041
2023-03-08T07:26:49.895Z,1044
2023-03-08T07:32:08.273Z,1046
2023-03-08T07:37:27.532Z,1043
2023-03-08T07:42:45.768Z,1047
2023-03-08T07:48:04.283Z,1053
2023-03-08T07:53:23.070Z,1050
2023-03-08T07:58:41.947Z,1054
2023-03-08T08:04:00.307Z,1048
2023-03-08T08:09:03.545Z,1051
2023-03-08T08:14:22.092Z,1048
2023-03-08T08:19:40.610Z,1048
2023-03-08T08:24:58.600Z,1048
2023-03-08T08:30:17.103Z,1046
2023-03-08T08:35:42.935Z,1042
2023-03-08T08:41:01.683Z,1044
2023-03-08T08:46:22.807Z,1039
2023-03-08T08:51:41.128Z,1044
2023-03-08T08:56:59.577Z,1048
2023-03-08T09:02:18.131Z,1043
2023-03-08T09:07:38.262Z,1044
2023-03-08T09:12:58.524Z,1045
2023-03-08T09:18:17.423Z,1036
2023-03-08T09:23:35.468Z,1038
2023-03-08T09:28:53.867Z,1041
2023-03-08T09:34:12.045Z,1042
2023-03-08T09:39:30.272Z,1044
2023-03-08T09:44:48.530Z,1042
2023-03-08T09:50:06.750Z,1034
2023-03-08T09:55:26.406Z,1027
2023-03-08T10:00:44.533Z,1026
2023-03-08T10:06:03.051Z,1024
2023-03-08T10:11:21.506Z,1015
2023-03-08T10:16:40.833Z,1017
2023-03-08T10:21:59.501Z,1019
2023-03-08T10:27:17.979Z,1021
2023-03-08T10:32:36.542Z,1021
2023-03-08T10:37:55.295Z,1020
2023-03-08T10:43:13.821Z,1018
2023-03-08T10:48:32.268Z,1016
2023-03-08T10:53:50.484Z,1010
2023-03-08T10:59:09.351Z,1005
2023-03-08T11:04:27.543Z,1009
2023-03-08T11:09:45.684Z,1006
2023-03-08T11:15:07.320Z,1005
2023-03-08T11:20:25.640Z,1004
2023-03-08T11:25:44.102Z,1004
2023-03-08T11:31:02.378Z,997
2023-03-08T11:36:20.570Z,995
2023-03-08T11:41:39.049Z,994
2023-03-08T11:46:57.632Z,987
2023-03-08T11:52:15.878Z,983
2023-03-08T11:57:34.636Z,976
2023-03-08T12:02:53.215Z,976
2023-03-08T12:08:11.463Z,971
2023-03-08T12:13:29.831Z,970
2023-03-08T12:18:48.624Z,968
2023-03-08T12:24:07.109Z,963
2023-03-08T12:29:25.178Z,953
2023-03-08T12:34:43.828Z,945
2023-03-08T12:40:02.080Z,939
2023-03-08T12:45:20.481Z,933
2023-03-08T12:50:39.193Z,929
2023-03-08T12:55:57.243Z,916
2023-03-08T13:01:15.831Z,901
2023-03-08T13:06:34.365Z,896
2023-03-08T13:11:52.682Z,899
2023-03-08T13:17:11.151Z,902
2023-03-08T13:22:29.882Z,903
2023-03-08T13:27:48.053Z,902
2023-03-08T13:33:06.454Z,894
2023-03-08T13:38:24.951Z,887
2023-03-08T13:43:43.450Z,873
2023-03-08T13:49:01.410Z,870
2023-03-08T13:54:20.465Z,870
2023-03-08T13:59:38.736Z,868
2023-03-08T14:04:57.586Z,866
2023-03-08T14:10:17.417Z,884
2023-03-08T14:15:36.588Z,884
2023-03-08T14:20:55.281Z,883
2023-03-08T14:26:13.960Z,882
2023-03-08T14:31:32.165Z,876
2023-03-08T14:36:51.030Z,867
2023-03-08T14:42:10.242Z,867
2023-03-08T14:47:28.735Z,857
2023-03-08T14:52:47.338Z,850
2023-03-08T14:58:05.771Z,848
2023-03-08T15:03:08.673Z,843
2023-03-08T15:08:27.433Z,848
2023-03-08T15:13:46.181Z,850
2023-03-08T15:19:06.104Z,848
2023-03-08T15:24:24.606Z,851
2023-03-08T15:29:42.667Z,848
2023-03-08T15:35:01.148Z,849
2023-03-08T15:40:19.401Z,854
2023-03-08T15:45:37.423Z,917
2023-03-08T15:50:41.216Z,925
2023-03-08T15:55:59.740Z,951
2023-03-08T16:01:18.269Z,951
2023-03-08T16:06:36.207Z,947
2023-03-08T16:11:54.401Z,875
2023-03-08T16:17:14.081Z,930
2023-03-08T16:22:34.600Z,962
2023-03-08T16:27:52.518Z,961
2023-03-08T16:33:10.786Z,966
2023-03-08T16:38:28.716Z,958
2023-03-08T16:43:50.462Z,962
2023-03-08T16:49:08.649Z,967
2023-03-08T16:54:26.971Z,993
2023-03-08T16:59:45.704Z,999
2023-03-08T17:05:04.285Z,997
2023-03-08T17:10:23.105Z,997
2023-03-08T17:15:41.880Z,1004
2023-03-08T17:21:00.229Z,1010
2023-03-08T17:26:18.433Z,1004
2023-03-08T17:31:21.468Z,1017
2023-03-08T17:36:40.073Z,1025
2023-03-08T17:41:58.734Z,837
2023-03-08T17:47:17.472Z,873
2023-03-08T17:52:36.397Z,896
2023-03-08T17:57:54.959Z,913
2023-03-08T18:03:13.435Z,924
2023-03-08T18:08:31.928Z,989
2023-03-08T18:13:50.533Z,993
2023-03-08T18:19:08.698Z,985
2023-03-08T18:24:27.170Z,994
2023-03-08T18:29:45.482Z,1004
2023-03-08T18:35:03.661Z,1003
2023-03-08T18:40:22.360Z,1007
2023-03-08T18:45:41.073Z,1013
2023-03-08T18:50:59.551Z,1036
2023-03-08T18:56:18.118Z,1115
2023-03-08T19:01:20.836Z,1026
2023-03-08T19:06:39.067Z,1018
2023-03-08T19:11:57.569Z,1022
2023-03-08T19:17:16.364Z,1039
2023-03-08T19:22:37.722Z,1058
2023-03-08T19:27:57.354Z,1073
2023-03-08T19:33:28.375Z,1083
2023-03-08T19:38:52.764Z,1091
2023-03-08T19:44:11.662Z,1098
2023-03-08T19:49:30.270Z,1101
2023-03-08T19:54:48.232Z,1108
2023-03-08T20:00:06.447Z,1115
2023-03-08T20:05:24.780Z,1119
2023-03-08T20:10:43.581Z,1129
2023-03-08T20:16:01.659Z,1130
2023-03-08T20:21:19.693Z,1142
2023-03-08T20:26:38.199Z,1147
2023-03-08T20:31:57.256Z,1156
2023-03-08T20:37:15.907Z,1158
2023-03-08T20:42:34.843Z,1168
2023-03-08T20:47:53.059Z,1174
2023-03-08T20:53:11.270Z,1185
2023-03-08T20:58:31.112Z,1193
2023-03-08T21:03:49.510Z,1205
2023-03-08T21:09:08.165Z,1210
2023-03-08T21:14:26.911Z,1234
2023-03-08T21:19:45.157Z,1257
2023-03-08T21:25:03.611Z,1288
2023-03-08T21:30:22.097Z,1340
2023-03-08T21:35:40.668Z,1360
2023-03-08T21:40:59.142Z,1369
2023-03-08T21:46:17.563Z,1399
2023-03-08T21:51:35.745Z,1441
2023-03-08T21:56:54.503Z,1467
2023-03-08T22:02:12.934Z,1480
2023-03-08T22:07:31.741Z,1500
2023-03-08T22:12:49.808Z,1504
2023-03-08T22:18:08.751Z,1517
2023-03-08T22:23:27.512Z,1520
2023-03-08T22:28:45.878Z,1529
2023-03-08T22:34:04.373Z,1536
2023-03-08T22:39:22.645Z,1542
2023-03-08T22:44:41.136Z,1549
2023-03-08T22:49:59.964Z,1551
2023-03-08T22:55:18.463Z,1556
2023-03-08T23:00:36.918Z,1546
2023-03-08T23:05:55.146Z,1551
2023-03-08T23:11:13.874Z,1553
2023-03-08T23:16:32.369Z,1555
2023-03-08T23:21:51.120Z,1576
2023-03-08T23:27:09.373Z,1618
2023-03-08T23:32:27.560Z,1671
2023-03-08T23:37:46.039Z,1707
2023-03-08T23:43:04.231Z,1740
2023-03-08T23:48:22.905Z,1756
2023-03-08T23:53:41.400Z,1758
2023-03-08T23:59:00.183Z,1771
